createdAt,value
2022-09-11T00:01:29.086Z,14.32
2022-09-11T00:03:56.427Z,14.30
2022-09-11T00:06:29.836Z,14.35
2022-09-11T00:09:01.359Z,14.30
2022-09-11T00:11:41.802Z,14.29
2022-09-11T00:14:13.611Z,14.36
2022-09-11T00:16:44.959Z,14.41
2022-09-11T00:19:18.906Z,14.47
2022-09-11T00:21:46.089Z,14.41
2022-09-11T00:24:12.929Z,14.35
2022-09-11T00:26:41.020Z,14.32
2022-09-11T00:29:08.089Z,14.28
2022-09-11T00:31:35.066Z,14.23
2022-09-11T00:34:01.681Z,14.22
2022-09-11T00:36:35.618Z,14.21
2022-09-11T00:39:02.130Z,14.13
2022-09-11T00:41:34.220Z,14.07
2022-09-11T00:44:17.854Z,14.00
2022-09-11T00:46:44.199Z,13.96
2022-09-11T00:49:42.862Z,13.93
2022-09-11T00:52:33.099Z,13.94
2022-09-11T00:55:23.035Z,13.81
2022-09-11T00:57:58.390Z,13.79
2022-09-11T01:00:24.888Z,13.85
2022-09-11T01:02:54.520Z,13.85
2022-09-11T01:05:24.559Z,13.72
2022-09-11T01:07:54.394Z,13.65
2022-09-11T01:10:41.286Z,13.71
2022-09-11T01:13:28.202Z,13.75
2022-09-11T01:16:09.361Z,13.63
2022-09-11T01:18:46.411Z,13.57
2022-09-11T01:21:35.875Z,13.53
2022-09-11T01:24:26.353Z,13.50
2022-09-11T01:27:41.917Z,13.53
2022-09-11T01:30:22.915Z,13.62
2022-09-11T01:33:22.794Z,13.59
2022-09-11T01:35:57.338Z,13.61
2022-09-11T01:38:37.662Z,13.68
2022-09-11T01:41:20.541Z,13.55
2022-09-11T01:44:03.743Z,13.42
2022-09-11T01:46:38.811Z,13.57
2022-09-11T01:49:28.830Z,13.68
2022-09-11T01:52:05.914Z,13.66
2022-09-11T01:54:42.694Z,13.73
2022-09-11T01:57:18.482Z,13.82
2022-09-11T01:59:52.596Z,13.90
2022-09-11T02:02:28.858Z,13.87
2022-09-11T02:05:15.529Z,13.83
2022-09-11T02:07:52.726Z,13.80
2022-09-11T02:10:30.067Z,13.90
2022-09-11T02:13:13.966Z,13.99
2022-09-11T02:15:49.491Z,14.06
2022-09-11T02:18:40.360Z,14.02
2022-09-11T02:21:07.083Z,14.03
2022-09-11T02:23:33.634Z,14.03
2022-09-11T02:26:03.710Z,14.04
2022-09-11T02:28:30.217Z,14.12
2022-09-11T02:30:56.931Z,14.17
2022-09-11T02:33:37.561Z,14.21
2022-09-11T02:36:49.099Z,14.23
2022-09-11T02:39:40.319Z,14.22
2022-09-11T02:42:55.381Z,14.20
2022-09-11T02:46:17.481Z,14.03
2022-09-11T02:49:29.752Z,13.90
2022-09-11T02:52:18.313Z,13.86
2022-09-11T02:55:16.470Z,13.95
2022-09-11T02:57:58.418Z,14.08
2022-09-11T03:00:24.971Z,14.15
2022-09-11T03:02:53.499Z,14.23
2022-09-11T03:05:21.413Z,14.21
2022-09-11T03:07:47.866Z,14.27
2022-09-11T03:10:14.794Z,14.33
2022-09-11T03:12:41.763Z,14.38
2022-09-11T03:15:11.937Z,14.45
2022-09-11T03:17:38.748Z,14.42
2022-09-11T03:20:06.211Z,14.44
2022-09-11T03:22:32.679Z,14.49
2022-09-11T03:24:59.164Z,14.46
2022-09-11T03:27:25.945Z,14.48
2022-09-11T03:29:52.392Z,14.49
2022-09-11T03:32:18.955Z,14.47
2022-09-11T03:34:47.211Z,14.51
2022-09-11T03:37:13.702Z,14.54
2022-09-11T03:39:40.167Z,14.56
2022-09-11T03:42:06.723Z,14.58
2022-09-11T03:44:33.148Z,14.49
2022-09-11T03:47:00.196Z,14.39
2022-09-11T03:49:26.709Z,14.41
2022-09-11T03:51:53.134Z,14.46
2022-09-11T03:54:20.847Z,14.51
2022-09-11T03:56:47.279Z,14.56
2022-09-11T03:59:13.811Z,14.56
2022-09-11T04:01:40.318Z,14.54
2022-09-11T04:04:06.771Z,14.51
2022-09-11T04:06:33.308Z,14.47
2022-09-11T04:09:00.469Z,14.51
2022-09-11T04:11:27.073Z,14.58
2022-09-11T04:13:54.559Z,14.60
2022-09-11T04:16:21.051Z,14.61
2022-09-11T04:18:49.345Z,14.66
2022-09-11T04:21:18.520Z,14.57
2022-09-11T04:23:45.655Z,14.53
2022-09-11T04:26:15.661Z,14.52
2022-09-11T04:28:43.335Z,14.58
2022-09-11T04:31:10.031Z,14.59
2022-09-11T04:33:37.311Z,14.56
2022-09-11T04:36:07.198Z,14.57
2022-09-11T04:38:34.262Z,14.58
2022-09-11T04:41:03.138Z,14.64
2022-09-11T04:43:35.368Z,14.69
2022-09-11T04:46:12.088Z,14.72
2022-09-11T04:49:04.436Z,14.73
2022-09-11T04:51:39.229Z,14.68
2022-09-11T04:54:07.671Z,14.74
2022-09-11T04:56:40.082Z,14.78
2022-09-11T04:59:13.393Z,14.80
2022-09-11T05:01:40.292Z,14.74
2022-09-11T05:04:06.745Z,14.72
2022-09-11T05:06:33.180Z,14.76
2022-09-11T05:09:05.884Z,14.81
2022-09-11T05:11:34.136Z,14.82
2022-09-11T05:14:00.646Z,14.85
2022-09-11T05:16:29.849Z,14.88
2022-09-11T05:18:57.704Z,14.85
2022-09-11T05:21:26.597Z,14.83
2022-09-11T05:23:57.846Z,14.85
2022-09-11T05:26:31.465Z,14.85
2022-09-11T05:29:02.380Z,14.92
2022-09-11T05:31:29.641Z,14.96
2022-09-11T05:33:56.756Z,15.00
2022-09-11T05:36:24.051Z,14.99
2022-09-11T05:38:50.521Z,14.95
2022-09-11T05:41:17.357Z,14.98
2022-09-11T05:43:44.324Z,14.98
2022-09-11T05:46:15.049Z,15.00
2022-09-11T05:48:41.918Z,14.95
2022-09-11T05:51:13.593Z,14.93
2022-09-11T05:53:41.271Z,14.93
2022-09-11T05:56:14.118Z,14.91
2022-09-11T05:58:40.536Z,14.84
2022-09-11T06:01:10.471Z,14.75
2022-09-11T06:03:38.671Z,14.73
2022-09-11T06:06:08.820Z,14.73
2022-09-11T06:08:36.727Z,14.83
2022-09-11T06:11:08.719Z,14.88
2022-09-11T06:13:39.144Z,14.93
2022-09-11T06:16:19.053Z,14.95
2022-09-11T06:18:49.068Z,14.99
2022-09-11T06:21:19.963Z,15.00
2022-09-11T06:23:48.823Z,14.94
2022-09-11T06:26:18.488Z,14.89
2022-09-11T06:28:44.993Z,14.96
2022-09-11T06:31:16.309Z,15.07
2022-09-11T06:33:43.181Z,15.18
2022-09-11T06:36:13.378Z,15.28
2022-09-11T06:38:40.319Z,15.27
2022-09-11T06:41:12.513Z,15.23
2022-09-11T06:43:39.418Z,15.10
2022-09-11T06:46:07.916Z,15.05
2022-09-11T06:48:34.442Z,14.99
2022-09-11T06:51:04.981Z,14.88
2022-09-11T06:53:31.515Z,14.87
2022-09-11T06:56:06.770Z,14.84
2022-09-11T06:58:33.500Z,14.80
2022-09-11T07:01:05.490Z,14.81
2022-09-11T07:03:33.146Z,14.88
2022-09-11T07:06:00.823Z,14.94
2022-09-11T07:08:27.971Z,15.00
2022-09-11T07:10:55.234Z,15.00
2022-09-11T07:13:24.231Z,14.99
2022-09-11T07:16:03.864Z,14.96
2022-09-11T07:18:43.355Z,15.05
2022-09-11T07:21:13.751Z,15.09
2022-09-11T07:23:41.229Z,15.19
2022-09-11T07:26:11.787Z,15.29
2022-09-11T07:28:39.596Z,15.42
2022-09-11T07:31:20.699Z,15.61
2022-09-11T07:33:49.955Z,15.74
2022-09-11T07:36:23.011Z,15.83
2022-09-11T07:38:51.291Z,15.94
2022-09-11T07:41:22.013Z,16.05
2022-09-11T07:43:57.297Z,16.19
2022-09-11T07:46:25.119Z,16.33
2022-09-11T07:48:51.591Z,16.41
2022-09-11T07:51:19.218Z,16.52
2022-09-11T07:53:51.738Z,16.59
2022-09-11T07:56:24.834Z,16.66
2022-09-11T07:58:54.873Z,16.74
2022-09-11T08:01:27.737Z,16.76
2022-09-11T08:04:05.461Z,16.64
2022-09-11T08:06:35.606Z,16.51
2022-09-11T08:09:06.819Z,16.38
2022-09-11T08:11:39.349Z,16.33
2022-09-11T08:14:07.314Z,16.36
2022-09-11T08:16:35.972Z,16.37
2022-09-11T08:19:02.559Z,16.37
2022-09-11T08:21:29.198Z,16.42
2022-09-11T08:23:55.643Z,16.61
2022-09-11T08:26:26.056Z,16.76
2022-09-11T08:28:55.503Z,16.91
2022-09-11T08:31:28.824Z,17.01
2022-09-11T08:33:56.487Z,17.04
2022-09-11T08:36:24.291Z,17.01
2022-09-11T08:38:52.407Z,16.97
2022-09-11T08:41:42.968Z,16.95
2022-09-11T08:44:09.312Z,16.97
2022-09-11T08:46:42.945Z,16.98
2022-09-11T08:49:24.612Z,16.97
2022-09-11T08:51:56.203Z,17.01
2022-09-11T08:54:33.368Z,17.08
2022-09-11T08:57:17.693Z,17.17
2022-09-11T09:00:19.702Z,17.28
2022-09-11T09:03:02.878Z,17.37
2022-09-11T09:06:02.286Z,17.48
2022-09-11T09:08:59.078Z,17.57
2022-09-11T09:11:44.745Z,17.55
2022-09-11T09:14:47.718Z,17.51
2022-09-11T09:17:24.944Z,17.62
2022-09-11T09:20:31.799Z,17.75
2022-09-11T09:23:06.587Z,17.79
2022-09-11T09:25:42.029Z,17.87
2022-09-11T09:28:20.474Z,17.86
2022-09-11T09:30:54.433Z,17.90
2022-09-11T09:33:29.053Z,17.98
2022-09-11T09:35:55.611Z,17.99
2022-09-11T09:38:28.090Z,18.01
2022-09-11T09:41:32.538Z,17.99
2022-09-11T09:44:29.856Z,17.95
2022-09-11T09:46:56.617Z,17.86
2022-09-11T09:49:37.335Z,18.23
2022-09-11T09:52:26.428Z,18.33
2022-09-11T09:55:00.328Z,18.37
2022-09-11T09:57:41.258Z,18.32
2022-09-11T10:00:11.617Z,18.32
2022-09-11T10:02:52.690Z,18.12
2022-09-11T10:05:40.804Z,18.01
2022-09-11T10:08:29.113Z,17.98
2022-09-11T10:11:08.714Z,17.99
2022-09-11T10:13:41.693Z,17.95
2022-09-11T10:16:25.372Z,17.98
2022-09-11T10:18:54.221Z,18.04
2022-09-11T10:21:24.240Z,18.05
2022-09-11T10:23:57.033Z,18.10
2022-09-11T10:26:49.753Z,18.07
2022-09-11T10:29:26.806Z,18.03
2022-09-11T10:31:57.958Z,18.04
2022-09-11T10:34:27.899Z,18.04
2022-09-11T10:37:07.552Z,18.00
2022-09-11T10:39:37.358Z,18.08
2022-09-11T10:42:29.283Z,17.96
2022-09-11T10:45:16.912Z,17.94
2022-09-11T10:47:48.363Z,18.04
2022-09-11T10:50:17.836Z,18.11
2022-09-11T10:53:15.012Z,18.08
2022-09-11T10:55:52.095Z,18.16
2022-09-11T10:58:27.181Z,18.37
2022-09-11T11:00:53.887Z,18.59
2022-09-11T11:03:26.226Z,18.56
2022-09-11T11:06:25.721Z,18.68
2022-09-11T11:09:36.745Z,18.67
2022-09-11T11:12:10.764Z,18.69
2022-09-11T11:15:21.721Z,18.42
2022-09-11T11:18:38.122Z,18.29
2022-09-11T11:21:25.618Z,18.09
2022-09-11T11:24:33.655Z,18.00
2022-09-11T11:27:56.534Z,17.87
2022-09-11T11:31:15.703Z,17.85
2022-09-11T11:34:22.085Z,17.93
2022-09-11T11:37:14.662Z,17.98
2022-09-11T11:40:10.795Z,18.08
2022-09-11T11:43:03.409Z,18.24
2022-09-11T11:45:43.272Z,18.34
2022-09-11T11:48:28.906Z,18.42
2022-09-11T11:51:06.164Z,18.60
2022-09-11T11:53:48.243Z,18.80
2022-09-11T11:56:45.964Z,18.72
2022-09-11T11:59:55.896Z,18.62
2022-09-11T12:02:58.284Z,18.58
2022-09-11T12:05:31.497Z,18.47
2022-09-11T12:07:58.647Z,18.52
2022-09-11T12:10:34.530Z,18.50
2022-09-11T12:13:07.334Z,18.49
2022-09-11T12:15:36.634Z,18.43
2022-09-11T12:18:11.919Z,18.47
2022-09-11T12:20:44.910Z,18.52
2022-09-11T12:23:30.098Z,18.57
2022-09-11T12:26:20.631Z,18.67
2022-09-11T12:28:47.261Z,18.76
2022-09-11T12:31:17.036Z,18.82
2022-09-11T12:33:43.567Z,18.81
2022-09-11T12:36:16.809Z,18.85
2022-09-11T12:38:53.855Z,18.90
2022-09-11T12:41:35.628Z,18.91
2022-09-11T12:44:05.074Z,19.00
2022-09-11T12:46:31.419Z,19.01
2022-09-11T12:49:23.781Z,19.09
2022-09-11T12:51:55.203Z,19.13
2022-09-11T12:54:38.984Z,19.16
2022-09-11T12:57:15.855Z,19.12
2022-09-11T12:59:51.092Z,19.32
2022-09-11T13:02:39.390Z,19.36
2022-09-11T13:05:38.080Z,19.56
2022-09-11T13:08:22.183Z,19.84
2022-09-11T13:10:48.990Z,20.05
2022-09-11T13:13:37.417Z,20.18
2022-09-11T13:16:25.956Z,20.12
2022-09-11T13:19:05.766Z,20.01
2022-09-11T13:21:39.039Z,19.88
2022-09-11T13:24:21.209Z,19.77
2022-09-11T13:26:55.029Z,19.74
2022-09-11T13:29:26.659Z,19.74
2022-09-11T13:31:55.685Z,19.80
2022-09-11T13:34:27.271Z,19.86
2022-09-11T13:36:57.052Z,19.90
2022-09-11T13:39:27.121Z,19.90
2022-09-11T13:42:04.929Z,19.88
2022-09-11T13:44:47.052Z,19.73
2022-09-11T13:47:23.809Z,19.64
2022-09-11T13:50:02.316Z,19.66
2022-09-11T13:52:33.878Z,19.68
2022-09-11T13:55:28.545Z,19.75
2022-09-11T14:00:45.496Z,19.89
2022-09-11T14:03:27.992Z,20.05
2022-09-11T14:05:59.773Z,20.23
2022-09-11T14:08:35.104Z,20.25
2022-09-11T14:11:11.654Z,20.19
2022-09-11T14:13:56.534Z,20.10
2022-09-11T14:16:36.307Z,20.09
2022-09-11T14:19:09.211Z,20.19
2022-09-11T14:21:40.020Z,20.35
2022-09-11T14:24:32.741Z,20.46
2022-09-11T14:27:02.211Z,20.63
2022-09-11T14:29:32.647Z,20.86
2022-09-11T14:32:31.143Z,20.94
2022-09-11T14:34:58.919Z,21.08
2022-09-11T14:37:29.601Z,21.16
2022-09-11T14:39:59.995Z,21.22
2022-09-11T14:42:31.555Z,21.14
2022-09-11T14:44:58.126Z,20.87
2022-09-11T14:47:28.635Z,20.82
2022-09-11T14:49:57.389Z,20.80
2022-09-11T14:52:29.534Z,20.65
2022-09-11T14:54:59.900Z,20.59
2022-09-11T14:57:34.084Z,20.56
2022-09-11T15:00:00.958Z,20.48
2022-09-11T15:02:29.553Z,20.27
2022-09-11T15:04:57.920Z,20.21
2022-09-11T15:07:25.628Z,20.09
2022-09-11T15:09:54.546Z,19.97
2022-09-11T15:12:22.288Z,19.88
2022-09-11T15:14:58.024Z,19.83
2022-09-11T15:17:30.404Z,19.77
2022-09-11T15:19:59.879Z,19.77
2022-09-11T15:22:26.632Z,19.63
2022-09-11T15:24:53.716Z,19.50
2022-09-11T15:27:20.234Z,19.47
2022-09-11T15:29:46.719Z,19.49
2022-09-11T15:32:14.289Z,19.46
2022-09-11T15:34:41.899Z,19.45
2022-09-11T15:37:08.391Z,19.43
2022-09-11T15:39:35.367Z,19.35
2022-09-11T15:42:01.928Z,19.39
2022-09-11T15:44:28.939Z,19.43
2022-09-11T15:46:58.670Z,19.45
2022-09-11T15:49:29.106Z,19.49
2022-09-11T15:51:56.422Z,19.46
2022-09-11T15:54:23.717Z,19.56
2022-09-11T15:56:52.114Z,19.60
2022-09-11T15:59:18.927Z,19.64
2022-09-11T16:01:45.688Z,19.62
2022-09-11T16:04:18.564Z,19.66
2022-09-11T16:06:48.308Z,19.63
2022-09-11T16:09:19.967Z,19.56
2022-09-11T16:11:47.847Z,19.52
2022-09-11T16:14:27.126Z,19.37
2022-09-11T16:16:55.934Z,19.30
2022-09-11T16:19:27.781Z,19.25
2022-09-11T16:21:57.004Z,19.23
2022-09-11T16:24:26.510Z,19.14
2022-09-11T16:26:55.801Z,19.08
2022-09-11T16:29:25.678Z,19.00
2022-09-11T16:31:52.463Z,19.02
2022-09-11T16:34:19.042Z,18.96
2022-09-11T16:36:46.260Z,18.94
2022-09-11T16:39:17.058Z,18.87
2022-09-11T16:41:43.649Z,18.84
2022-09-11T16:44:16.124Z,18.80
2022-09-11T16:46:45.579Z,18.80
2022-09-11T16:49:18.344Z,18.76
2022-09-11T16:51:47.179Z,18.73
2022-09-11T16:54:13.870Z,18.72
2022-09-11T16:56:45.230Z,18.66
2022-09-11T16:59:12.347Z,18.60
2022-09-11T17:01:39.040Z,18.57
2022-09-11T17:04:05.565Z,18.55
2022-09-11T17:06:32.251Z,18.49
2022-09-11T17:09:02.830Z,18.32
2022-09-11T17:11:32.062Z,18.10
2022-09-11T17:14:02.392Z,18.03
2022-09-11T17:16:32.889Z,17.97
2022-09-11T17:19:01.517Z,17.93
2022-09-11T17:21:35.553Z,17.88
2022-09-11T17:24:04.827Z,17.91
2022-09-11T17:26:31.874Z,17.88
2022-09-11T17:29:03.156Z,17.81
2022-09-11T17:31:30.129Z,17.68
2022-09-11T17:33:56.697Z,17.48
2022-09-11T17:36:23.913Z,17.32
2022-09-11T17:38:55.181Z,17.27
2022-09-11T17:41:21.679Z,17.17
2022-09-11T17:43:49.191Z,17.02
2022-09-11T17:46:20.509Z,16.82
2022-09-11T17:48:47.987Z,16.70
2022-09-11T17:51:24.864Z,16.56
2022-09-11T17:53:56.149Z,16.50
2022-09-11T17:56:27.168Z,16.45
2022-09-11T17:58:57.392Z,16.26
2022-09-11T18:01:30.363Z,16.05
2022-09-11T18:03:59.145Z,15.93
2022-09-11T18:06:36.874Z,15.85
2022-09-11T18:09:11.938Z,15.76
2022-09-11T18:11:45.068Z,15.62
2022-09-11T18:14:13.617Z,15.53
2022-09-11T18:16:43.531Z,15.40
2022-09-11T18:19:10.603Z,15.27
2022-09-11T18:21:38.444Z,15.26
2022-09-11T18:24:07.368Z,15.22
2022-09-11T18:26:39.454Z,15.09
2022-09-11T18:29:11.239Z,14.96
2022-09-11T18:31:42.525Z,14.88
2022-09-11T18:34:13.399Z,14.86
2022-09-11T18:36:40.042Z,14.84
2022-09-11T18:39:06.526Z,14.82
2022-09-11T18:41:37.282Z,14.73
2022-09-11T18:44:08.780Z,14.59
2022-09-11T18:46:37.275Z,14.53
2022-09-11T18:49:05.147Z,14.48
2022-09-11T18:51:32.524Z,14.48
2022-09-11T18:54:00.213Z,14.46
2022-09-11T18:56:29.499Z,14.38
2022-09-11T18:58:56.294Z,14.31
2022-09-11T19:01:27.404Z,14.37
2022-09-11T19:03:55.291Z,14.35
2022-09-11T19:06:28.221Z,14.27
2022-09-11T19:08:55.909Z,14.17
2022-09-11T19:11:26.706Z,13.98
2022-09-11T19:14:00.291Z,13.85
2022-09-11T19:16:26.834Z,13.81
2022-09-11T19:18:53.330Z,13.78
2022-09-11T19:21:23.309Z,13.75
2022-09-11T19:23:55.861Z,13.72
2022-09-11T19:26:26.885Z,13.84
2022-09-11T19:28:56.130Z,13.89
2022-09-11T19:31:27.481Z,13.84
2022-09-11T19:33:55.340Z,13.76
2022-09-11T19:36:25.313Z,13.67
2022-09-11T19:38:55.843Z,13.59
2022-09-11T19:41:25.741Z,13.52
2022-09-11T19:43:54.004Z,13.32
2022-09-11T19:46:27.223Z,13.27
2022-09-11T19:48:57.931Z,13.37
2022-09-11T19:51:28.542Z,13.48
2022-09-11T19:54:00.235Z,13.49
2022-09-11T19:56:29.203Z,13.40
2022-09-11T19:58:56.067Z,13.30
2022-09-11T20:01:25.421Z,13.27
2022-09-11T20:03:54.260Z,13.18
2022-09-11T20:06:26.163Z,13.15
2022-09-11T20:09:13.483Z,13.10
2022-09-11T20:11:41.530Z,13.00
2022-09-11T20:14:08.003Z,12.91
2022-09-11T20:16:34.632Z,12.90
2022-09-11T20:19:09.234Z,13.00
2022-09-11T20:21:36.121Z,13.07
2022-09-11T20:24:07.147Z,12.99
2022-09-11T20:26:34.923Z,12.89
2022-09-11T20:29:08.704Z,12.82
2022-09-11T20:31:47.426Z,12.93
2022-09-11T20:34:17.321Z,12.92
2022-09-11T20:36:43.858Z,12.80
2022-09-11T20:39:13.502Z,12.74
2022-09-11T20:41:40.269Z,12.73
2022-09-11T20:44:06.735Z,12.74
2022-09-11T20:46:33.335Z,12.63
2022-09-11T20:49:00.709Z,12.48
2022-09-11T20:51:27.642Z,12.47
2022-09-11T20:53:56.001Z,12.40
2022-09-11T20:56:23.709Z,12.42
2022-09-11T20:58:50.909Z,12.41
2022-09-11T21:01:22.734Z,12.41
2022-09-11T21:03:53.561Z,12.34
2022-09-11T21:06:26.027Z,12.35
2022-09-11T21:08:58.995Z,12.28
2022-09-11T21:11:27.506Z,12.19
2022-09-11T21:13:54.411Z,12.12
2022-09-11T21:16:21.666Z,12.12
2022-09-11T21:18:58.538Z,12.09
2022-09-11T21:21:27.015Z,12.06
2022-09-11T21:24:01.171Z,11.97
2022-09-11T21:26:29.699Z,11.91
2022-09-11T21:28:58.451Z,11.91
2022-09-11T21:31:26.305Z,11.90
2022-09-11T21:33:53.751Z,11.90
2022-09-11T21:36:20.608Z,11.91
2022-09-11T21:38:47.050Z,11.91
2022-09-11T21:41:14.311Z,11.93
2022-09-11T21:43:41.072Z,11.88
2022-09-11T21:46:09.102Z,11.81
2022-09-11T21:48:39.338Z,11.85
2022-09-11T21:51:09.913Z,11.82
2022-09-11T21:53:38.657Z,11.74
2022-09-11T21:56:05.816Z,11.77
2022-09-11T21:58:32.274Z,11.75
2022-09-11T22:01:05.757Z,11.70
2022-09-11T22:03:32.353Z,11.68
2022-09-11T22:05:58.779Z,11.70
2022-09-11T22:08:25.298Z,11.79
2022-09-11T22:10:51.935Z,11.80
2022-09-11T22:13:19.616Z,11.73
2022-09-11T22:15:49.986Z,11.57
2022-09-11T22:18:18.122Z,11.48
2022-09-11T22:20:45.972Z,11.39
2022-09-11T22:23:21.727Z,11.37
2022-09-11T22:25:56.559Z,11.36
2022-09-11T22:28:22.991Z,11.33
2022-09-11T22:30:49.411Z,11.37
2022-09-11T22:33:15.924Z,11.40
2022-09-11T22:35:44.066Z,11.38
2022-09-11T22:38:12.131Z,11.32
2022-09-11T22:40:38.831Z,11.34
2022-09-11T22:43:05.812Z,11.33
2022-09-11T22:45:32.273Z,11.28
2022-09-11T22:47:59.212Z,11.29
2022-09-11T22:50:26.151Z,11.28
2022-09-11T22:52:52.956Z,11.20
2022-09-11T22:55:19.606Z,11.19
2022-09-11T22:57:46.202Z,11.31
2022-09-11T23:00:14.842Z,11.30
2022-09-11T23:02:41.919Z,11.19
2022-09-11T23:05:27.583Z,11.10
2022-09-11T23:07:54.611Z,11.17
2022-09-11T23:10:23.354Z,11.23
2022-09-11T23:12:52.405Z,11.15
2022-09-11T23:15:20.111Z,11.05
2022-09-11T23:17:46.858Z,10.96
2022-09-11T23:20:13.917Z,11.02
2022-09-11T23:22:40.370Z,11.01
2022-09-11T23:25:07.715Z,10.90
2022-09-11T23:27:34.251Z,10.81
2022-09-11T23:30:00.717Z,10.78
2022-09-11T23:32:27.160Z,10.75
2022-09-11T23:34:53.603Z,10.65
2022-09-11T23:37:20.063Z,10.62
2022-09-11T23:39:46.736Z,10.68
2022-09-11T23:42:13.294Z,10.73
2022-09-11T23:44:39.739Z,10.77
2022-09-11T23:47:06.245Z,10.75
2022-09-11T23:49:36.193Z,10.73
2022-09-11T23:52:04.806Z,10.72
2022-09-11T23:54:31.335Z,10.77
2022-09-11T23:56:57.965Z,10.71
2022-09-11T23:59:24.451Z,10.67
